Time;durP1;ratioP1;P1;durP2;ratioP2;P2;SDS_P1;SDS_P2;PMS_P1;PMS_P2;Temp;Humidity;BMP_temperature;BMP_pressure;BME280_temperature;BME280_humidity;BME280_pressure;Samples;Min_cycle;Max_cycle;Signal;HPM_P1;HPM_P2
2023/08/16 00:01:57;;;;;;;;;;;13.80;99.90;;;;;;5035670;28;19929;-76
2023/08/16 00:04:23;;;;;;;;;;;13.80;99.90;;;;;;5035664;28;19957;-77
2023/08/16 00:06:49;;;;;;;;;;;13.80;99.90;;;;;;5015656;28;19929;-77
2023/08/16 00:09:19;;;;;;;;;;;13.80;99.90;;;;;;5038406;28;19933;-78
2023/08/16 00:11:45;;;;;;;;;;;13.70;99.90;;;;;;5048877;28;19990;-78
2023/08/16 00:14:10;;;;;;;;;;;13.70;99.90;;;;;;5035722;28;19964;-78
2023/08/16 00:16:36;;;;;;;;;;;13.60;99.90;;;;;;5032347;28;19933;-77
2023/08/16 00:19:01;;;;;;;;;;;13.60;99.90;;;;;;5038931;28;19929;-78
2023/08/16 00:21:27;;;;;;;;;;;13.50;99.90;;;;;;5036138;28;19925;-78
2023/08/16 00:23:52;;;;;;;;;;;13.50;99.90;;;;;;5040700;28;19979;-78
2023/08/16 00:26:18;;;;;;;;;;;13.50;99.90;;;;;;5054667;28;19925;-78
2023/08/16 00:28:45;;;;;;;;;;;13.50;99.90;;;;;;5039561;28;19940;-78
2023/08/16 00:31:11;;;;;;;;;;;13.50;99.90;;;;;;5068713;28;19925;-77
2023/08/16 00:33:37;;;;;;;;;;;13.50;99.90;;;;;;5038508;28;19936;-77
2023/08/16 00:36:02;;;;;;;;;;;13.50;99.90;;;;;;5051451;28;19971;-78
2023/08/16 00:38:28;;;;;;;;;;;13.50;99.90;;;;;;5021574;28;19933;-78
2023/08/16 00:40:53;;;;;;;;;;;13.50;99.90;;;;;;5051917;28;19957;-78
2023/08/16 00:43:19;;;;;;;;;;;13.50;99.90;;;;;;5039702;28;19929;-78
2023/08/16 00:45:45;;;;;;;;;;;13.40;99.90;;;;;;5040950;28;20039;-77
2023/08/16 00:48:11;;;;;;;;;;;13.50;99.90;;;;;;5038421;28;19932;-78
2023/08/16 00:50:37;;;;;;;;;;;13.40;99.90;;;;;;5034904;28;19933;-78
2023/08/16 00:53:02;;;;;;;;;;;13.40;99.90;;;;;;5039787;28;19991;-78
2023/08/16 00:55:28;;;;;;;;;;;13.30;99.90;;;;;;5002403;28;19925;-78
2023/08/16 00:57:54;;;;;;;;;;;13.30;99.90;;;;;;5043384;28;19932;-78
2023/08/16 01:00:20;;;;;;;;;;;13.30;99.90;;;;;;5031388;28;19929;-77
2023/08/16 01:02:45;;;;;;;;;;;13.30;99.90;;;;;;5036337;28;19931;-78
2023/08/16 01:05:11;;;;;;;;;;;13.30;99.90;;;;;;5036446;28;19925;-78
2023/08/16 01:07:37;;;;;;;;;;;13.30;99.90;;;;;;5039364;28;19944;-77
2023/08/16 01:10:03;;;;;;;;;;;13.30;99.90;;;;;;5037679;28;19964;-78
2023/08/16 01:12:34;;;;;;;;;;;13.30;99.90;;;;;;5033067;28;19976;-78
2023/08/16 01:14:59;;;;;;;;;;;13.30;99.90;;;;;;5035565;28;20011;-78
2023/08/16 01:17:26;;;;;;;;;;;13.30;99.90;;;;;;5035091;28;20555;-77
2023/08/16 01:19:53;;;;;;;;;;;13.30;99.90;;;;;;5031566;28;19944;-78
2023/08/16 01:22:37;;;;;;;;;;;13.30;99.90;;;;;;5035433;28;19925;-77
2023/08/16 01:25:09;;;;;;;;;;;13.30;99.90;;;;;;5048146;28;19933;-78
2023/08/16 01:27:35;;;;;;;;;;;13.20;99.90;;;;;;5030507;28;19929;-78
2023/08/16 01:30:03;;;;;;;;;;;13.20;99.90;;;;;;5035177;28;20411;-78
2023/08/16 01:32:28;;;;;;;;;;;13.20;99.90;;;;;;5033076;28;19925;-78
2023/08/16 01:34:54;;;;;;;;;;;13.20;99.90;;;;;;5036789;28;19932;-78
2023/08/16 01:37:19;;;;;;;;;;;13.10;99.90;;;;;;5065130;28;20010;-78
2023/08/16 01:39:48;;;;;;;;;;;13.20;99.90;;;;;;5034225;28;19971;-78
2023/08/16 01:42:17;;;;;;;;;;;13.10;99.90;;;;;;5064138;28;22093;-79
2023/08/16 01:44:43;;;;;;;;;;;13.10;99.90;;;;;;5068812;28;19936;-78
2023/08/16 01:47:09;;;;;;;;;;;13.10;99.90;;;;;;5037971;28;19967;-78
2023/08/16 01:49:35;;;;;;;;;;;13.10;99.90;;;;;;5017289;28;19929;-78
2023/08/16 01:52:02;;;;;;;;;;;13.10;99.90;;;;;;5032737;28;20052;-78
2023/08/16 01:54:27;;;;;;;;;;;13.10;99.90;;;;;;5031843;28;19929;-78
2023/08/16 01:56:53;;;;;;;;;;;13.10;99.90;;;;;;5029719;28;19928;-78
2023/08/16 01:59:18;;;;;;;;;;;13.00;99.90;;;;;;5002253;28;19929;-78
2023/08/16 02:01:44;;;;;;;;;;;13.00;99.90;;;;;;5032536;28;19936;-78
2023/08/16 02:04:09;;;;;;;;;;;12.90;99.90;;;;;;5034640;28;20025;-78
2023/08/16 02:06:35;;;;;;;;;;;12.90;99.90;;;;;;5036155;28;19929;-78
2023/08/16 02:09:00;;;;;;;;;;;13.00;99.90;;;;;;5052801;28;20159;-78
2023/08/16 02:11:26;;;;;;;;;;;12.90;99.90;;;;;;5026368;28;20015;-78
2023/08/16 02:13:52;;;;;;;;;;;12.90;99.90;;;;;;5034523;28;20416;-78
2023/08/16 02:16:17;;;;;;;;;;;12.80;99.90;;;;;;5038609;28;20373;-78
2023/08/16 02:18:43;;;;;;;;;;;12.90;99.90;;;;;;4997816;28;20044;-78
2023/08/16 02:21:08;;;;;;;;;;;12.90;99.90;;;;;;5021683;28;20296;-78
2023/08/16 02:23:34;;;;;;;;;;;12.90;99.90;;;;;;5034914;28;19925;-78
2023/08/16 02:25:59;;;;;;;;;;;12.90;99.90;;;;;;5001018;28;19925;-78
2023/08/16 02:28:25;;;;;;;;;;;12.90;99.90;;;;;;5029713;28;19926;-78
2023/08/16 02:30:51;;;;;;;;;;;12.90;99.90;;;;;;5012749;28;19925;-78
2023/08/16 02:33:16;;;;;;;;;;;12.90;99.90;;;;;;5063355;28;19988;-78
2023/08/16 02:35:42;;;;;;;;;;;12.80;99.90;;;;;;5018523;28;19983;-78
2023/08/16 02:38:07;;;;;;;;;;;12.80;99.90;;;;;;5017892;28;21085;-78
2023/08/16 02:40:35;;;;;;;;;;;12.70;99.90;;;;;;5015511;28;19936;-78
2023/08/16 02:43:01;;;;;;;;;;;12.60;99.90;;;;;;5030674;28;19983;-78
2023/08/16 02:45:26;;;;;;;;;;;12.70;99.90;;;;;;5019283;28;19929;-79
2023/08/16 02:47:52;;;;;;;;;;;12.70;99.90;;;;;;5022202;28;19935;-78
2023/08/16 02:50:17;;;;;;;;;;;12.70;99.90;;;;;;5015836;28;20338;-78
2023/08/16 02:52:43;;;;;;;;;;;12.70;99.90;;;;;;5014782;28;19933;-78
2023/08/16 02:55:09;;;;;;;;;;;12.70;99.90;;;;;;5034046;28;19929;-78
2023/08/16 02:57:34;;;;;;;;;;;12.70;99.90;;;;;;5033831;28;19925;-78
2023/08/16 03:00:00;;;;;;;;;;;12.70;99.90;;;;;;5021059;28;19991;-79
2023/08/16 03:02:27;;;;;;;;;;;12.70;99.90;;;;;;5023747;28;19940;-79
2023/08/16 03:04:53;;;;;;;;;;;12.70;99.90;;;;;;5035212;28;19940;-78
2023/08/16 03:07:18;;;;;;;;;;;12.70;99.90;;;;;;5018614;28;19929;-78
2023/08/16 03:09:44;;;;;;;;;;;12.70;99.90;;;;;;5036648;28;19929;-79
2023/08/16 03:12:09;;;;;;;;;;;12.70;99.90;;;;;;5034052;28;19925;-78
2023/08/16 03:14:35;;;;;;;;;;;12.70;99.90;;;;;;5016170;28;19936;-78
2023/08/16 03:17:00;;;;;;;;;;;12.70;99.90;;;;;;5015612;28;19976;-78
2023/08/16 03:19:26;;;;;;;;;;;12.70;99.90;;;;;;5032223;28;19932;-78
2023/08/16 03:21:53;;;;;;;;;;;12.70;99.90;;;;;;5036845;28;19925;-78
2023/08/16 03:24:19;;;;;;;;;;;12.60;99.90;;;;;;5021654;28;20537;-78
2023/08/16 03:26:44;;;;;;;;;;;12.70;99.90;;;;;;5050009;28;19929;-78
2023/08/16 03:29:10;;;;;;;;;;;12.70;99.90;;;;;;5047924;28;19925;-78
2023/08/16 03:31:37;;;;;;;;;;;12.70;99.90;;;;;;5017039;28;19932;-78
2023/08/16 03:34:02;;;;;;;;;;;12.70;99.90;;;;;;5032057;28;19928;-78
2023/08/16 03:36:28;;;;;;;;;;;12.70;99.90;;;;;;5016197;28;19988;-78
2023/08/16 03:38:53;;;;;;;;;;;12.70;99.90;;;;;;5031130;28;19929;-78
2023/08/16 03:41:19;;;;;;;;;;;12.70;99.90;;;;;;5033519;28;19968;-78
2023/08/16 03:43:45;;;;;;;;;;;12.60;99.90;;;;;;5034170;28;19929;-78
2023/08/16 03:46:10;;;;;;;;;;;12.70;99.90;;;;;;5018884;28;19960;-78
2023/08/16 03:48:36;;;;;;;;;;;12.70;99.90;;;;;;5031329;28;19925;-78
2023/08/16 03:51:01;;;;;;;;;;;12.70;99.90;;;;;;5025882;28;19932;-78
2023/08/16 03:53:27;;;;;;;;;;;12.60;99.90;;;;;;5032599;28;19933;-78
2023/08/16 03:55:56;;;;;;;;;;;12.70;99.90;;;;;;5034396;28;19952;-78
2023/08/16 03:58:22;;;;;;;;;;;12.70;99.90;;;;;;5036121;28;19929;-78
2023/08/16 04:00:48;;;;;;;;;;;12.70;99.90;;;;;;5040526;28;19979;-78
2023/08/16 04:03:13;;;;;;;;;;;12.70;99.90;;;;;;5042163;28;19929;-78
2023/08/16 04:05:39;;;;;;;;;;;12.70;99.90;;;;;;5056659;28;19929;-78
2023/08/16 04:08:05;;;;;;;;;;;12.70;99.90;;;;;;5023876;28;19931;-78
2023/08/16 04:10:30;;;;;;;;;;;12.70;99.90;;;;;;5021927;28;19968;-78
2023/08/16 04:12:56;;;;;;;;;;;12.70;99.90;;;;;;5039151;28;19925;-78
2023/08/16 04:15:21;;;;;;;;;;;12.70;99.90;;;;;;5032134;28;19983;-78
2023/08/16 04:17:47;;;;;;;;;;;12.70;99.90;;;;;;5031501;28;19936;-78
2023/08/16 04:20:12;;;;;;;;;;;12.60;99.90;;;;;;5074788;28;19925;-77
2023/08/16 04:22:38;;;;;;;;;;;12.60;99.90;;;;;;5044835;28;19929;-78
2023/08/16 04:25:04;;;;;;;;;;;12.50;99.90;;;;;;5056833;28;19925;-78
2023/08/16 04:27:29;;;;;;;;;;;12.50;99.90;;;;;;5041038;28;19926;-78
2023/08/16 04:29:55;;;;;;;;;;;12.40;99.90;;;;;;5051197;28;19968;-77
2023/08/16 04:32:20;;;;;;;;;;;12.40;99.90;;;;;;5041699;28;19925;-78
2023/08/16 04:34:46;;;;;;;;;;;12.40;99.90;;;;;;5022019;28;22103;-78
2023/08/16 04:37:12;;;;;;;;;;;12.40;99.90;;;;;;5032871;28;20036;-78
2023/08/16 04:39:37;;;;;;;;;;;12.50;99.90;;;;;;5006961;28;21451;-78
2023/08/16 04:42:03;;;;;;;;;;;12.50;99.90;;;;;;5071373;28;19925;-78
2023/08/16 04:44:28;;;;;;;;;;;12.50;99.90;;;;;;5056542;28;20304;-78
2023/08/16 04:46:54;;;;;;;;;;;12.50;99.90;;;;;;5035330;28;19929;-78
2023/08/16 04:49:20;;;;;;;;;;;12.50;99.90;;;;;;5036159;28;20306;-78
2023/08/16 04:51:46;;;;;;;;;;;12.50;99.90;;;;;;5022598;28;19925;-78
2023/08/16 04:54:11;;;;;;;;;;;12.50;99.90;;;;;;5034664;28;20491;-78
2023/08/16 04:56:37;;;;;;;;;;;12.50;99.90;;;;;;5066588;28;19936;-78
2023/08/16 04:59:02;;;;;;;;;;;12.40;99.90;;;;;;5032575;28;19948;-78
2023/08/16 05:01:28;;;;;;;;;;;12.40;99.90;;;;;;5020489;28;19935;-78
2023/08/16 05:03:54;;;;;;;;;;;12.50;99.90;;;;;;5032195;28;19925;-78
2023/08/16 05:06:19;;;;;;;;;;;12.50;99.90;;;;;;5034224;28;19925;-78
2023/08/16 05:08:45;;;;;;;;;;;12.60;99.90;;;;;;5012121;28;19936;-78
2023/08/16 05:11:10;;;;;;;;;;;12.60;99.90;;;;;;5017005;28;19943;-78
2023/08/16 05:13:36;;;;;;;;;;;12.90;99.90;;;;;;5064246;28;19929;-78
2023/08/16 05:16:02;;;;;;;;;;;13.30;99.90;;;;;;5033037;28;19957;-78
2023/08/16 05:18:28;;;;;;;;;;;13.80;99.90;;;;;;5029626;28;19953;-78
2023/08/16 05:20:57;;;;;;;;;;;14.20;99.90;;;;;;4999269;28;20392;-78
2023/08/16 05:23:22;;;;;;;;;;;14.60;99.90;;;;;;5034580;28;19972;-78
2023/08/16 05:25:48;;;;;;;;;;;14.80;99.90;;;;;;5032503;28;19932;-78
2023/08/16 05:28:14;;;;;;;;;;;14.90;99.90;;;;;;5034398;28;20014;-78
2023/08/16 05:30:39;;;;;;;;;;;14.80;99.90;;;;;;5036857;28;19933;-78
2023/08/16 05:33:05;;;;;;;;;;;14.90;99.90;;;;;;5032616;28;19932;-78
2023/08/16 05:35:34;;;;;;;;;;;14.90;99.90;;;;;;5033062;28;20386;-78
2023/08/16 05:37:59;;;;;;;;;;;15.00;99.90;;;;;;5036205;28;19925;-78
2023/08/16 05:40:25;;;;;;;;;;;15.10;99.90;;;;;;5021369;28;20028;-78
2023/08/16 05:42:51;;;;;;;;;;;15.20;99.90;;;;;;5036916;28;19953;-78
2023/08/16 05:45:16;;;;;;;;;;;15.30;99.90;;;;;;5066810;28;19960;-79
2023/08/16 05:47:42;;;;;;;;;;;15.50;99.90;;;;;;5019589;28;20127;-79
2023/08/16 05:50:08;;;;;;;;;;;15.60;99.90;;;;;;5015593;28;19929;-79
2023/08/16 05:52:33;;;;;;;;;;;15.60;99.90;;;;;;5015661;28;19932;-78
2023/08/16 05:54:59;;;;;;;;;;;15.60;99.90;;;;;;5042880;28;19929;-78
2023/08/16 05:57:24;;;;;;;;;;;15.50;99.90;;;;;;5030659;28;20008;-78
2023/08/16 05:59:50;;;;;;;;;;;15.50;99.90;;;;;;5037872;28;20500;-78
2023/08/16 06:02:16;;;;;;;;;;;15.60;99.90;;;;;;5017071;28;19929;-78
2023/08/16 06:04:42;;;;;;;;;;;15.70;99.90;;;;;;5065707;28;19939;-78
2023/08/16 06:07:08;;;;;;;;;;;15.70;99.90;;;;;;5032504;28;19969;-78
2023/08/16 06:09:34;;;;;;;;;;;15.70;99.90;;;;;;5034443;28;19982;-78
2023/08/16 06:12:00;;;;;;;;;;;15.80;99.90;;;;;;5002176;28;19925;-78
2023/08/16 06:14:25;;;;;;;;;;;15.90;99.90;;;;;;5066248;28;19929;-78
2023/08/16 06:16:51;;;;;;;;;;;15.90;99.90;;;;;;5042806;28;19932;-78
2023/08/16 06:19:17;;;;;;;;;;;16.10;99.90;;;;;;5032232;28;19939;-77
2023/08/16 06:21:42;;;;;;;;;;;16.10;99.90;;;;;;5054515;28;19948;-77
2023/08/16 06:24:08;;;;;;;;;;;16.10;99.90;;;;;;5021603;28;20517;-77
2023/08/16 06:26:34;;;;;;;;;;;16.20;99.90;;;;;;5039039;28;19925;-77
2023/08/16 06:29:00;;;;;;;;;;;16.20;99.90;;;;;;5070373;28;19925;-77
2023/08/16 06:31:26;;;;;;;;;;;16.20;99.90;;;;;;5020746;28;19936;-77
2023/08/16 06:33:51;;;;;;;;;;;16.30;99.90;;;;;;5019325;28;19940;-77
2023/08/16 06:36:17;;;;;;;;;;;16.30;99.90;;;;;;5048437;28;19975;-78
2023/08/16 06:38:43;;;;;;;;;;;16.40;99.90;;;;;;5033721;28;20423;-77
2023/08/16 06:41:09;;;;;;;;;;;16.60;99.90;;;;;;5019646;28;19936;-78
2023/08/16 06:43:35;;;;;;;;;;;16.90;99.90;;;;;;5037928;28;19925;-77
2023/08/16 06:46:00;;;;;;;;;;;17.50;99.90;;;;;;5037315;28;19952;-78
2023/08/16 06:48:26;;;;;;;;;;;18.20;99.90;;;;;;5035430;28;19925;-77
2023/08/16 06:50:51;;;;;;;;;;;18.80;99.90;;;;;;4997828;28;19931;-77
2023/08/16 06:53:17;;;;;;;;;;;19.20;99.90;;;;;;5033072;28;19941;-77
2023/08/16 06:55:42;;;;;;;;;;;19.40;99.90;;;;;;5032552;28;19936;-77
2023/08/16 06:58:08;;;;;;;;;;;19.50;99.90;;;;;;4998403;28;20473;-78
2023/08/16 07:00:34;;;;;;;;;;;19.40;99.90;;;;;;5046849;28;19933;-78
2023/08/16 07:03:03;;;;;;;;;;;19.20;99.90;;;;;;5052948;28;19929;-76
2023/08/16 07:05:29;;;;;;;;;;;19.10;99.90;;;;;;5035869;28;19925;-78
2023/08/16 07:07:55;;;;;;;;;;;19.00;99.90;;;;;;5049309;28;19935;-76
2023/08/16 07:10:21;;;;;;;;;;;18.90;99.90;;;;;;5029248;28;19925;-77
2023/08/16 07:12:46;;;;;;;;;;;19.10;99.90;;;;;;5064016;28;19948;-77
2023/08/16 07:15:12;;;;;;;;;;;19.40;99.90;;;;;;5072352;28;19999;-77
2023/08/16 07:17:38;;;;;;;;;;;19.70;99.90;;;;;;5049619;28;19932;-77
2023/08/16 07:20:07;;;;;;;;;;;19.90;99.90;;;;;;5069432;28;19925;-77
2023/08/16 07:22:33;;;;;;;;;;;19.90;99.90;;;;;;5019871;28;19925;-77
2023/08/16 07:24:59;;;;;;;;;;;19.80;99.90;;;;;;5036338;28;20720;-77
2023/08/16 07:27:24;;;;;;;;;;;19.70;99.90;;;;;;5035223;28;19975;-78
2023/08/16 07:29:50;;;;;;;;;;;19.60;99.90;;;;;;5039034;28;19926;-78
2023/08/16 07:32:16;;;;;;;;;;;19.50;99.90;;;;;;5040852;28;19925;-78
2023/08/16 07:34:42;;;;;;;;;;;19.50;99.90;;;;;;5057953;28;19925;-78
2023/08/16 07:37:08;;;;;;;;;;;19.90;99.90;;;;;;5041199;28;19998;-79
2023/08/16 07:39:33;;;;;;;;;;;20.40;99.90;;;;;;5041881;28;19925;-78
2023/08/16 07:41:59;;;;;;;;;;;20.90;99.90;;;;;;5019644;28;19936;-77
2023/08/16 07:44:25;;;;;;;;;;;21.30;99.90;;;;;;5020350;28;19975;-78
2023/08/16 07:46:50;;;;;;;;;;;21.80;99.90;;;;;;5041957;28;19929;-78
2023/08/16 07:49:16;;;;;;;;;;;22.30;99.90;;;;;;5040169;28;19925;-78
2023/08/16 07:51:41;;;;;;;;;;;22.90;99.90;;;;;;5041435;28;19925;-77
2023/08/16 07:54:07;;;;;;;;;;;23.40;99.90;;;;;;5040921;28;19929;-78
2023/08/16 07:56:32;;;;;;;;;;;23.80;99.90;;;;;;5042157;28;19925;-75
2023/08/16 07:58:58;;;;;;;;;;;24.00;99.90;;;;;;5031457;28;20408;-75
2023/08/16 08:01:23;;;;;;;;;;;24.10;99.90;;;;;;5028947;28;19971;-74
2023/08/16 08:03:49;;;;;;;;;;;24.20;99.90;;;;;;5031098;28;19925;-75
2023/08/16 08:06:15;;;;;;;;;;;24.20;99.90;;;;;;5035190;28;19925;-75
2023/08/16 08:08:40;;;;;;;;;;;23.80;99.90;;;;;;5023894;28;19929;-78
2023/08/16 08:11:08;;;;;;;;;;;23.70;99.90;;;;;;5025160;28;20143;-78
2023/08/16 08:13:33;;;;;;;;;;;24.00;99.90;;;;;;5038246;28;19926;-78
2023/08/16 08:16:00;;;;;;;;;;;24.20;99.90;;;;;;5023008;28;20011;-78
2023/08/16 08:18:26;;;;;;;;;;;24.40;99.90;;;;;;5068664;28;20439;-77
2023/08/16 08:20:51;;;;;;;;;;;24.60;99.90;;;;;;5036497;28;19925;-86
2023/08/16 08:23:17;;;;;;;;;;;24.80;99.90;;;;;;5018046;28;19936;-86
2023/08/16 08:25:43;;;;;;;;;;;25.10;99.90;;;;;;5000837;28;19925;-85
2023/08/16 08:28:09;;;;;;;;;;;25.10;99.90;;;;;;5031451;28;19929;-85
2023/08/16 08:30:35;;;;;;;;;;;25.20;99.90;;;;;;5034374;28;19947;-84
2023/08/16 08:33:01;;;;;;;;;;;25.40;99.90;;;;;;5055306;28;19929;-85
2023/08/16 08:35:26;;;;;;;;;;;25.60;99.90;;;;;;5053963;28;19925;-85
2023/08/16 08:37:52;;;;;;;;;;;25.80;99.90;;;;;;5022950;28;19925;-85
2023/08/16 08:40:20;;;;;;;;;;;25.90;99.90;;;;;;5037730;28;19925;-86
2023/08/16 08:42:49;;;;;;;;;;;26.10;99.90;;;;;;5004336;28;20016;-84
2023/08/16 08:45:15;;;;;;;;;;;26.20;99.90;;;;;;5039733;28;19956;-85
2023/08/16 08:47:42;;;;;;;;;;;26.30;99.90;;;;;;5023442;28;20376;-85
2023/08/16 08:50:07;;;;;;;;;;;26.20;99.90;;;;;;5021914;28;19929;-85
2023/08/16 08:52:34;;;;;;;;;;;26.30;99.90;;;;;;5029610;28;19932;-85
2023/08/16 08:55:00;;;;;;;;;;;26.20;99.90;;;;;;5019856;28;19932;-85
2023/08/16 08:57:28;;;;;;;;;;;25.90;99.90;;;;;;5057106;28;19925;-85
2023/08/16 08:59:56;;;;;;;;;;;25.50;99.90;;;;;;5040789;28;19924;-85
2023/08/16 09:02:22;;;;;;;;;;;25.20;99.90;;;;;;5032381;28;19972;-84
2023/08/16 09:04:48;;;;;;;;;;;24.80;99.90;;;;;;5033750;28;20082;-85
2023/08/16 09:07:15;;;;;;;;;;;24.50;99.90;;;;;;5002278;28;19929;-85
2023/08/16 09:09:44;;;;;;;;;;;24.30;99.90;;;;;;5040210;28;19931;-85
2023/08/16 09:12:13;;;;;;;;;;;24.00;99.90;;;;;;5053090;28;19925;-85
2023/08/16 09:14:39;;;;;;;;;;;23.70;99.90;;;;;;5031182;28;19929;-85
2023/08/16 09:17:04;;;;;;;;;;;23.60;99.90;;;;;;5052418;28;19948;-85
2023/08/16 09:19:30;;;;;;;;;;;23.70;99.90;;;;;;5037492;28;19930;-85
2023/08/16 09:21:56;;;;;;;;;;;24.20;99.90;;;;;;5061755;28;19937;-85
2023/08/16 09:24:23;;;;;;;;;;;24.80;99.90;;;;;;5052575;28;19925;-85
2023/08/16 09:26:49;;;;;;;;;;;25.30;99.90;;;;;;5037872;28;19925;-85
2023/08/16 09:29:17;;;;;;;;;;;25.60;99.90;;;;;;5046654;28;19928;-85
2023/08/16 09:31:44;;;;;;;;;;;25.80;99.90;;;;;;5036304;28;19948;-85
2023/08/16 09:34:12;;;;;;;;;;;25.80;99.90;;;;;;5041686;28;19929;-85
2023/08/16 09:36:38;;;;;;;;;;;25.80;99.90;;;;;;5041614;28;20072;-84
2023/08/16 09:39:09;;;;;;;;;;;25.80;99.90;;;;;;5025372;28;19925;-85
2023/08/16 09:41:35;;;;;;;;;;;26.00;99.90;;;;;;5051166;28;19925;-85
2023/08/16 09:44:05;;;;;;;;;;;26.20;99.90;;;;;;5035347;28;19935;-85
2023/08/16 09:46:31;;;;;;;;;;;26.20;99.90;;;;;;5007215;28;20300;-85
2023/08/16 09:49:07;;;;;;;;;;;26.20;99.90;;;;;;5053111;28;19972;-86
2023/08/16 09:51:37;;;;;;;;;;;26.20;99.90;;;;;;5032617;28;19988;-85
2023/08/16 09:54:12;;;;;;;;;;;26.20;99.90;;;;;;5024209;28;20019;-85
2023/08/16 09:56:37;;;;;;;;;;;26.30;99.90;;;;;;5020540;28;19937;-84
2023/08/16 09:59:04;;;;;;;;;;;26.30;99.90;;;;;;5011368;28;19936;-85
2023/08/16 10:01:30;;;;;;;;;;;26.40;99.90;;;;;;5031263;28;19925;-85
2023/08/16 10:03:58;;;;;;;;;;;26.50;99.90;;;;;;5021540;28;19990;-85
2023/08/16 10:06:24;;;;;;;;;;;26.50;99.90;;;;;;5022092;28;19925;-84
2023/08/16 10:08:52;;;;;;;;;;;26.60;99.90;;;;;;5048990;28;19925;-85
2023/08/16 10:11:18;;;;;;;;;;;26.40;99.90;;;;;;5035278;28;19960;-84
2023/08/16 10:13:44;;;;;;;;;;;26.20;99.90;;;;;;5036455;28;19932;-84
2023/08/16 10:16:12;;;;;;;;;;;26.10;98.60;;;;;;5009563;28;19936;-84
2023/08/16 10:18:39;;;;;;;;;;;26.00;99.90;;;;;;5042144;28;19949;-85
2023/08/16 10:21:07;;;;;;;;;;;26.00;99.90;;;;;;5015470;28;19925;-84
2023/08/16 10:23:35;;;;;;;;;;;26.10;99.90;;;;;;5050707;28;19929;-85
2023/08/16 10:26:02;;;;;;;;;;;26.10;99.90;;;;;;5025967;28;20070;-84
2023/08/16 10:28:28;;;;;;;;;;;26.10;99.90;;;;;;5028678;28;20095;-85
2023/08/16 10:30:56;;;;;;;;;;;26.10;99.90;;;;;;5035613;28;21812;-85
2023/08/16 10:33:33;;;;;;;;;;;26.10;99.60;;;;;;5018121;28;19937;-85
2023/08/16 10:36:01;;;;;;;;;;;26.00;99.90;;;;;;5057825;28;19979;-86
2023/08/16 10:38:34;;;;;;;;;;;25.70;97.90;;;;;;5019010;28;19989;-85
2023/08/16 10:41:00;;;;;;;;;;;25.60;99.90;;;;;;5020393;28;19951;-85
2023/08/16 10:43:34;;;;;;;;;;;25.50;99.90;;;;;;5007301;28;19925;-86
2023/08/16 10:46:00;;;;;;;;;;;25.80;99.90;;;;;;5033755;28;19929;-86
2023/08/16 10:48:33;;;;;;;;;;;25.90;99.60;;;;;;5020732;28;19956;-81
2023/08/16 10:51:01;;;;;;;;;;;26.00;99.70;;;;;;5029709;28;19955;-81
2023/08/16 10:53:27;;;;;;;;;;;26.10;99.90;;;;;;5025421;28;19933;-82
2023/08/16 10:55:55;;;;;;;;;;;26.20;99.90;;;;;;5035155;28;19936;-83
2023/08/16 10:58:23;;;;;;;;;;;26.40;99.90;;;;;;5053724;28;20048;-81
2023/08/16 11:00:56;;;;;;;;;;;26.40;99.50;;;;;;5073610;28;19932;-80
2023/08/16 11:03:29;;;;;;;;;;;26.40;99.60;;;;;;5037351;28;19952;-81
2023/08/16 11:05:55;;;;;;;;;;;26.50;99.90;;;;;;5040609;28;20000;-82
2023/08/16 11:08:22;;;;;;;;;;;26.50;99.50;;;;;;5037370;28;19968;-79
2023/08/16 11:10:47;;;;;;;;;;;26.60;97.00;;;;;;5040473;28;19934;-85
2023/08/16 11:13:13;;;;;;;;;;;26.50;96.80;;;;;;5054489;28;19933;-85
2023/08/16 11:15:40;;;;;;;;;;;26.40;98.20;;;;;;5026412;28;19940;-85
2023/08/16 11:18:06;;;;;;;;;;;26.40;99.30;;;;;;5028948;28;19931;-84
2023/08/16 11:20:31;;;;;;;;;;;26.40;98.90;;;;;;5008831;28;19928;-85
2023/08/16 11:23:00;;;;;;;;;;;26.40;97.80;;;;;;5053612;28;20408;-85
2023/08/16 11:25:35;;;;;;;;;;;26.40;96.70;;;;;;5029749;28;20032;-85
2023/08/16 11:28:03;;;;;;;;;;;26.30;98.20;;;;;;5035734;28;19925;-85
2023/08/16 11:30:29;;;;;;;;;;;26.10;98.50;;;;;;5054025;28;19925;-85
2023/08/16 11:32:55;;;;;;;;;;;26.00;98.80;;;;;;5050266;28;19972;-85
2023/08/16 11:35:23;;;;;;;;;;;26.00;97.80;;;;;;5034549;28;19952;-85
2023/08/16 11:37:49;;;;;;;;;;;26.00;97.80;;;;;;5018528;28;20016;-85
2023/08/16 11:40:15;;;;;;;;;;;25.90;98.60;;;;;;5036485;28;19929;-85
2023/08/16 11:42:40;;;;;;;;;;;25.90;99.10;;;;;;5032552;28;19948;-85
2023/08/16 11:45:19;;;;;;;;;;;26.00;98.10;;;;;;5002756;28;19959;-86
2023/08/16 11:47:48;;;;;;;;;;;26.10;98.10;;;;;;5020705;28;19925;-85
2023/08/16 11:50:14;;;;;;;;;;;26.20;98.20;;;;;;5009196;28;21212;-85
2023/08/16 11:52:40;;;;;;;;;;;26.20;97.50;;;;;;5003708;28;19925;-85
2023/08/16 11:55:07;;;;;;;;;;;26.20;98.90;;;;;;5002015;28;19932;-84
2023/08/16 11:57:33;;;;;;;;;;;26.30;99.30;;;;;;5070742;28;19925;-86
2023/08/16 12:00:01;;;;;;;;;;;26.20;97.30;;;;;;5020111;28;19932;-84
2023/08/16 12:02:27;;;;;;;;;;;26.10;95.30;;;;;;5031082;28;19930;-85
2023/08/16 12:04:53;;;;;;;;;;;25.80;98.30;;;;;;5021067;28;19925;-79
2023/08/16 12:07:18;;;;;;;;;;;25.50;98.30;;;;;;5036470;28;20400;-79
2023/08/16 12:09:47;;;;;;;;;;;25.30;98.30;;;;;;5042031;28;19991;-79
2023/08/16 12:12:12;;;;;;;;;;;25.10;97.90;;;;;;5040951;28;19929;-79
2023/08/16 12:14:38;;;;;;;;;;;24.80;99.90;;;;;;5020727;28;19929;-79
2023/08/16 12:17:03;;;;;;;;;;;24.70;99.90;;;;;;5042125;28;19925;-78
2023/08/16 12:19:29;;;;;;;;;;;24.90;99.90;;;;;;5040809;28;19988;-79
2023/08/16 12:21:54;;;;;;;;;;;25.00;98.40;;;;;;5040051;28;19948;-78
2023/08/16 12:24:20;;;;;;;;;;;25.00;99.50;;;;;;5069269;28;20016;-79
2023/08/16 12:26:45;;;;;;;;;;;25.10;99.40;;;;;;5054741;28;19932;-80
2023/08/16 12:29:11;;;;;;;;;;;25.20;99.80;;;;;;5022718;28;19955;-78
2023/08/16 12:31:38;;;;;;;;;;;25.30;99.90;;;;;;5040642;28;19936;-78
2023/08/16 12:34:05;;;;;;;;;;;25.40;99.40;;;;;;5038526;28;19951;-78
2023/08/16 12:36:31;;;;;;;;;;;25.40;99.90;;;;;;5039976;28;19933;-78
2023/08/16 12:38:56;;;;;;;;;;;25.50;99.90;;;;;;5040355;28;20402;-79
2023/08/16 12:41:22;;;;;;;;;;;25.70;99.90;;;;;;5039573;28;19925;-78
2023/08/16 12:43:47;;;;;;;;;;;25.80;98.40;;;;;;5057313;28;19940;-78
2023/08/16 12:46:13;;;;;;;;;;;25.60;97.60;;;;;;5053662;28;19932;-78
2023/08/16 12:48:38;;;;;;;;;;;25.40;97.90;;;;;;5057173;28;19925;-78
2023/08/16 12:51:05;;;;;;;;;;;25.30;97.40;;;;;;5039495;28;19925;-78
2023/08/16 12:53:30;;;;;;;;;;;25.20;97.40;;;;;;5056269;28;19932;-78
2023/08/16 12:55:59;;;;;;;;;;;25.20;97.50;;;;;;5052905;28;19925;-78
2023/08/16 12:58:24;;;;;;;;;;;25.40;99.90;;;;;;5039304;28;19925;-78
2023/08/16 13:00:50;;;;;;;;;;;25.50;98.60;;;;;;5039849;28;19929;-79
2023/08/16 13:03:16;;;;;;;;;;;25.50;99.60;;;;;;5055905;28;19985;-78
2023/08/16 13:05:41;;;;;;;;;;;25.60;98.30;;;;;;5056043;28;19933;-78
2023/08/16 13:08:07;;;;;;;;;;;25.70;98.80;;;;;;5034550;28;19972;-78
2023/08/16 13:10:32;;;;;;;;;;;25.80;98.50;;;;;;5050581;28;19947;-78
2023/08/16 13:12:58;;;;;;;;;;;25.80;98.70;;;;;;5054411;28;19925;-78
2023/08/16 13:15:23;;;;;;;;;;;25.90;99.00;;;;;;5051779;28;19935;-78
2023/08/16 13:17:50;;;;;;;;;;;26.00;98.90;;;;;;5037389;28;19931;-78
2023/08/16 13:20:16;;;;;;;;;;;26.20;99.30;;;;;;5054141;28;19925;-78
2023/08/16 13:22:41;;;;;;;;;;;26.10;97.50;;;;;;5039388;28;20373;-78
2023/08/16 13:25:07;;;;;;;;;;;26.00;97.50;;;;;;5036715;28;19932;-78
2023/08/16 13:27:32;;;;;;;;;;;25.80;97.60;;;;;;5036085;28;20024;-78
2023/08/16 13:29:59;;;;;;;;;;;25.80;97.60;;;;;;5040698;28;20799;-78
2023/08/16 13:32:24;;;;;;;;;;;25.80;97.80;;;;;;5055342;28;19929;-78
2023/08/16 13:34:50;;;;;;;;;;;25.80;97.80;;;;;;5055945;28;19940;-78
2023/08/16 13:37:15;;;;;;;;;;;25.80;98.70;;;;;;5037420;28;19933;-78
2023/08/16 13:39:41;;;;;;;;;;;25.80;97.30;;;;;;5071794;28;19996;-78
2023/08/16 13:42:06;;;;;;;;;;;25.70;96.90;;;;;;5038350;28;19925;-78
2023/08/16 13:44:32;;;;;;;;;;;25.70;96.50;;;;;;5055690;28;19944;-78
2023/08/16 13:46:58;;;;;;;;;;;25.70;97.80;;;;;;5055197;28;19929;-78
2023/08/16 13:49:23;;;;;;;;;;;25.60;97.30;;;;;;5037025;28;19997;-78
2023/08/16 13:51:49;;;;;;;;;;;25.50;96.80;;;;;;5037599;28;19925;-79
2023/08/16 13:54:14;;;;;;;;;;;25.60;96.30;;;;;;5054699;28;19925;-79
2023/08/16 13:56:40;;;;;;;;;;;25.70;97.30;;;;;;5055665;28;20483;-78
2023/08/16 13:59:08;;;;;;;;;;;25.60;95.10;;;;;;5068260;28;19996;-78
2023/08/16 14:01:33;;;;;;;;;;;25.60;97.20;;;;;;5029793;28;19975;-78
2023/08/16 14:03:59;;;;;;;;;;;25.60;97.10;;;;;;5034471;28;20027;-78
2023/08/16 14:06:25;;;;;;;;;;;25.60;96.50;;;;;;5036322;28;20507;-79
2023/08/16 14:08:51;;;;;;;;;;;25.50;96.40;;;;;;5015531;28;20090;-79
2023/08/16 14:11:17;;;;;;;;;;;25.40;96.20;;;;;;5069815;28;19964;-79